createdAt,value
2022-10-22T00:04:35.704Z,100070.28
2022-10-22T00:11:24.114Z,100041.44
2022-10-22T00:18:09.672Z,100078.06
2022-10-22T00:24:55.082Z,100054.44
2022-10-22T00:31:46.833Z,100042.09
2022-10-22T00:38:32.494Z,100060.44
2022-10-22T00:45:25.835Z,100067.22
2022-10-22T00:52:15.046Z,100061.03
2022-10-22T00:59:04.125Z,100046.75
2022-10-22T01:05:58.930Z,100075.00
2022-10-22T01:13:00.242Z,100078.91
2022-10-22T01:20:06.116Z,100079.50
2022-10-22T01:27:11.941Z,100068.25
2022-10-22T01:34:02.952Z,100079.66
2022-10-22T01:40:49.865Z,100077.47
2022-10-22T01:47:51.218Z,100092.00
2022-10-22T01:54:49.608Z,100070.09
2022-10-22T02:01:43.905Z,100085.34
2022-10-22T02:08:34.022Z,100019.59
2022-10-22T02:15:23.665Z,100103.56
2022-10-22T02:22:09.457Z,100087.53
2022-10-22T02:29:05.376Z,100086.25
2022-10-22T02:35:55.731Z,100093.19
2022-10-22T02:42:42.804Z,100072.75
2022-10-22T03:03:18.933Z,100065.97
2022-10-22T03:10:04.753Z,100089.03
2022-10-22T03:16:50.141Z,100076.78
2022-10-22T03:23:39.225Z,100066.06
2022-10-22T03:30:24.857Z,100085.56
2022-10-22T03:37:10.301Z,100098.94
2022-10-22T03:43:59.245Z,100112.31
2022-10-22T03:50:47.297Z,100141.06
2022-10-22T03:57:32.689Z,100158.69
2022-10-22T04:04:20.634Z,100138.19
2022-10-22T04:11:06.798Z,100166.59
2022-10-22T04:17:52.179Z,100193.59
2022-10-22T04:24:40.627Z,100192.19
2022-10-22T04:31:28.115Z,100211.31
2022-10-22T04:38:13.512Z,100217.56
2022-10-22T04:45:02.997Z,100222.97
2022-10-22T04:51:48.369Z,100234.19
2022-10-22T04:58:33.713Z,100238.16
2022-10-22T05:05:21.704Z,100231.81
2022-10-22T05:12:07.851Z,100227.09
2022-10-22T05:18:53.410Z,100230.78
2022-10-22T05:25:43.214Z,100226.03
2022-10-22T05:32:28.698Z,100253.13
2022-10-22T05:39:14.406Z,100256.91
2022-10-22T05:46:06.592Z,100261.50
2022-10-22T05:52:51.913Z,100283.00
2022-10-22T05:59:38.302Z,100291.19
2022-10-22T06:06:32.011Z,100296.69
2022-10-22T06:13:17.399Z,100294.84
2022-10-22T06:20:02.746Z,100308.47
2022-10-22T06:26:55.395Z,100307.81
2022-10-22T06:33:43.045Z,100340.22
2022-10-22T06:40:29.202Z,100356.88
2022-10-22T06:47:17.240Z,100355.34
2022-10-22T06:54:07.435Z,100370.25
2022-10-22T07:00:52.987Z,100395.03
2022-10-22T07:07:40.989Z,100390.44
2022-10-22T07:14:26.885Z,100389.75
2022-10-22T07:21:14.594Z,100390.91
2022-10-22T07:28:02.833Z,100406.66
2022-10-22T07:34:48.321Z,100417.72
2022-10-22T07:41:34.686Z,100352.09
2022-10-22T07:48:22.696Z,100430.06
2022-10-22T07:55:09.800Z,100368.09
2022-10-22T08:01:55.161Z,100443.81
2022-10-22T08:08:43.555Z,100438.13
2022-10-22T08:15:29.037Z,100445.56
2022-10-22T08:22:14.577Z,100437.81
2022-10-22T08:29:02.589Z,100453.63
2022-10-22T08:35:52.166Z,100470.63
2022-10-22T08:43:10.176Z,100465.69
2022-10-22T08:49:58.948Z,100454.84
2022-10-22T08:56:50.945Z,100464.28
2022-10-22T09:03:45.664Z,100464.72
2022-10-22T09:10:39.516Z,100475.81
2022-10-22T09:17:33.960Z,100479.50
2022-10-22T09:24:39.889Z,100451.22
2022-10-22T09:31:34.695Z,100483.75
2022-10-22T09:38:24.696Z,100491.22
2022-10-22T09:45:17.767Z,100492.81
2022-10-22T09:52:12.373Z,100485.94
2022-10-22T09:59:00.833Z,100492.31
2022-10-22T10:05:51.000Z,100509.91
2022-10-22T10:12:49.237Z,100507.56
2022-10-22T10:19:51.604Z,100508.38
2022-10-22T10:26:45.759Z,100513.69
2022-10-22T10:33:45.693Z,100487.44
2022-10-22T10:40:41.101Z,100490.97
2022-10-22T10:47:56.721Z,100504.06
2022-10-22T10:54:57.543Z,100448.06
2022-10-22T11:01:55.557Z,100503.13
2022-10-22T11:08:45.901Z,100491.75
2022-10-22T11:15:36.969Z,100500.13
2022-10-22T11:22:29.423Z,100493.28
2022-10-22T11:29:20.837Z,100496.09
2022-10-22T11:36:11.453Z,100503.16
2022-10-22T11:43:00.983Z,100486.69
2022-10-22T11:49:53.098Z,100481.00
2022-10-22T11:56:44.502Z,100479.22
2022-10-22T12:03:44.295Z,100491.47
2022-10-22T12:10:32.835Z,100426.91
2022-10-22T12:17:21.708Z,100476.94
2022-10-22T12:24:09.225Z,100459.06
2022-10-22T12:30:54.581Z,100476.25
2022-10-22T12:37:42.811Z,100451.91
2022-10-22T12:44:28.409Z,100466.91
2022-10-22T12:51:20.685Z,100469.16
2022-10-22T12:58:14.591Z,100468.25
2022-10-22T13:05:20.506Z,100468.69
2022-10-22T13:12:10.721Z,100478.59
2022-10-22T13:18:58.686Z,100475.13
2022-10-22T13:25:44.264Z,100473.09
2022-10-22T13:32:33.396Z,100402.97
2022-10-22T13:39:25.090Z,100476.09
2022-10-22T13:46:13.245Z,100458.19
2022-10-22T13:53:01.216Z,100476.75
2022-10-22T13:59:49.327Z,100471.91
2022-10-22T14:13:41.984Z,100474.91
2022-10-22T14:20:33.117Z,100434.63
2022-10-22T14:27:19.180Z,100425.50
2022-10-22T14:34:04.528Z,100486.00
2022-10-22T14:40:53.125Z,100476.16
2022-10-22T14:47:38.484Z,100475.25
2022-10-22T14:54:23.861Z,100459.91
2022-10-22T15:01:13.170Z,100478.38
2022-10-22T15:07:59.161Z,100489.88
2022-10-22T15:14:44.308Z,100477.28
2022-10-22T15:21:32.493Z,100473.97
2022-10-22T15:28:17.937Z,100493.97
2022-10-22T15:35:05.958Z,100469.25
2022-10-22T15:41:55.329Z,100480.19
2022-10-22T15:48:41.204Z,100475.09
2022-10-22T15:55:26.412Z,100483.81
2022-10-22T16:02:15.526Z,100484.88
2022-10-22T16:09:03.099Z,100476.44
2022-10-22T16:15:48.523Z,100483.56
2022-10-22T16:22:36.512Z,100472.09
2022-10-22T16:36:10.661Z,100484.28
2022-10-22T16:42:58.769Z,100474.97
2022-10-22T16:49:44.181Z,100502.34
2022-10-22T16:56:30.326Z,100493.16
2022-10-22T17:03:18.369Z,100512.72
2022-10-22T17:10:04.713Z,100513.38
2022-10-22T17:16:53.702Z,100514.56
2022-10-22T17:23:42.574Z,100524.13
2022-10-22T17:30:28.886Z,100501.94
2022-10-22T17:44:06.489Z,100530.97
2022-10-22T17:50:53.633Z,100550.38
2022-10-22T17:57:41.108Z,100545.25
2022-10-22T18:04:29.063Z,100554.25
2022-10-22T18:11:17.536Z,100553.66
2022-10-22T18:18:04.257Z,100553.53
2022-10-22T18:24:53.079Z,100550.44
2022-10-22T18:31:38.959Z,100546.22
2022-10-22T18:38:24.658Z,100552.53
2022-10-22T18:45:13.821Z,100538.19
2022-10-22T18:51:59.139Z,100558.50
2022-10-22T18:58:47.794Z,100541.63
2022-10-22T19:05:35.876Z,100535.84
2022-10-22T19:12:21.739Z,100533.09
2022-10-22T19:19:09.738Z,100513.13
2022-10-22T19:26:07.678Z,100527.31
2022-10-22T19:32:53.293Z,100545.94
2022-10-22T19:39:38.664Z,100542.94
2022-10-22T19:46:29.208Z,100526.38
2022-10-22T19:53:14.581Z,100545.56
2022-10-22T19:59:59.959Z,100545.03
2022-10-22T20:06:48.730Z,100510.72
2022-10-22T20:13:34.150Z,100533.06
2022-10-22T20:20:21.957Z,100537.66
2022-10-22T20:27:13.558Z,100542.22
2022-10-22T20:34:01.107Z,100534.59
2022-10-22T20:40:46.517Z,100549.91
2022-10-22T20:47:44.690Z,100545.06
2022-10-22T20:54:41.335Z,100547.13
2022-10-22T21:01:28.499Z,100521.00
2022-10-22T21:08:17.595Z,100529.69
2022-10-22T21:15:03.084Z,100543.47
2022-10-22T21:21:48.462Z,100534.78
2022-10-22T21:28:37.956Z,100528.69
2022-10-22T21:35:23.329Z,100522.19
2022-10-22T21:42:10.258Z,100531.72
2022-10-22T21:49:03.509Z,100522.25
2022-10-22T21:55:48.903Z,100520.28
2022-10-22T22:02:35.028Z,100535.53
2022-10-22T22:09:23.807Z,100536.53
2022-10-22T22:16:12.718Z,100555.06
2022-10-22T22:22:58.209Z,100551.84
2022-10-22T22:29:46.635Z,100507.44
2022-10-22T22:36:36.320Z,100548.72
2022-10-22T22:43:21.701Z,100545.03
2022-10-22T22:50:11.101Z,100536.81
2022-10-22T22:56:56.418Z,100517.75
2022-10-22T23:03:42.126Z,100514.41
2022-10-22T23:10:30.228Z,100502.84
2022-10-22T23:17:15.577Z,100519.88
2022-10-22T23:24:04.661Z,100516.41
2022-10-22T23:30:52.653Z,100497.66
2022-10-22T23:37:38.049Z,100484.72
2022-10-22T23:44:24.433Z,100488.19
2022-10-22T23:51:18.606Z,100485.63
2022-10-22T23:58:03.929Z,100504.28
